sensor_id;sensor_type;location;lat;lon;timestamp;temperature;humidity
10276;DHT22;5183;51.190;6.820;2023-11-18T00:02:19;4.20;99.90
10276;DHT22;5183;51.190;6.820;2023-11-18T00:04:46;4.20;99.90
10276;DHT22;5183;51.190;6.820;2023-11-18T00:07:13;4.20;99.90
10276;DHT22;5183;51.190;6.820;2023-11-18T00:09:40;4.20;99.90
10276;DHT22;5183;51.190;6.820;2023-11-18T00:12:11;4.20;99.90
10276;DHT22;5183;51.190;6.820;2023-11-18T00:14:39;4.30;99.90
10276;DHT22;5183;51.190;6.820;2023-11-18T00:17:07;4.30;99.90
10276;DHT22;5183;51.190;6.820;2023-11-18T00:19:35;4.30;99.90
10276;DHT22;5183;51.190;6.820;2023-11-18T00:22:02;4.30;99.90
10276;DHT22;5183;51.190;6.820;2023-11-18T00:24:29;4.30;99.90
10276;DHT22;5183;51.190;6.820;2023-11-18T00:27:00;4.30;99.90
10276;DHT22;5183;51.190;6.820;2023-11-18T00:29:31;4.30;99.90
10276;DHT22;5183;51.190;6.820;2023-11-18T00:32:00;4.40;99.90
10276;DHT22;5183;51.190;6.820;2023-11-18T00:34:29;4.40;99.90
10276;DHT22;5183;51.190;6.820;2023-11-18T00:36:56;4.40;99.90
10276;DHT22;5183;51.190;6.820;2023-11-18T00:39:23;4.40;99.90
10276;DHT22;5183;51.190;6.820;2023-11-18T00:41:50;4.50;99.90
10276;DHT22;5183;51.190;6.820;2023-11-18T00:44:17;4.50;99.90
10276;DHT22;5183;51.190;6.820;2023-11-18T00:46:44;4.50;99.90
10276;DHT22;5183;51.190;6.820;2023-11-18T00:49:12;4.50;99.90
10276;DHT22;5183;51.190;6.820;2023-11-18T00:51:39;4.50;99.90
10276;DHT22;5183;51.190;6.820;2023-11-18T00:54:06;4.50;99.90
10276;DHT22;5183;51.190;6.820;2023-11-18T00:56:35;4.50;99.90
10276;DHT22;5183;51.190;6.820;2023-11-18T00:59:02;4.50;99.90
10276;DHT22;5183;51.190;6.820;2023-11-18T01:01:28;4.50;99.90
10276;DHT22;5183;51.190;6.820;2023-11-18T01:03:55;4.50;99.90
10276;DHT22;5183;51.190;6.820;2023-11-18T01:06:26;4.50;99.90
10276;DHT22;5183;51.190;6.820;2023-11-18T01:08:53;4.50;99.90
10276;DHT22;5183;51.190;6.820;2023-11-18T01:11:20;4.50;99.90
10276;DHT22;5183;51.190;6.820;2023-11-18T01:13:48;4.60;99.90
10276;DHT22;5183;51.190;6.820;2023-11-18T01:16:15;4.50;99.90
10276;DHT22;5183;51.190;6.820;2023-11-18T01:18:42;4.50;99.90
10276;DHT22;5183;51.190;6.820;2023-11-18T01:21:09;4.50;99.90
10276;DHT22;5183;51.190;6.820;2023-11-18T01:23:38;4.50;99.90
10276;DHT22;5183;51.190;6.820;2023-11-18T01:26:08;4.50;99.90
10276;DHT22;5183;51.190;6.820;2023-11-18T01:28:35;4.50;99.90
10276;DHT22;5183;51.190;6.820;2023-11-18T01:31:05;4.50;99.90
10276;DHT22;5183;51.190;6.820;2023-11-18T01:33:32;4.50;99.90
10276;DHT22;5183;51.190;6.820;2023-11-18T01:36:03;4.50;99.90
10276;DHT22;5183;51.190;6.820;2023-11-18T01:38:30;4.50;99.90
10276;DHT22;5183;51.190;6.820;2023-11-18T01:40:58;4.50;99.90
10276;DHT22;5183;51.190;6.820;2023-11-18T01:43:26;4.50;99.90
10276;DHT22;5183;51.190;6.820;2023-11-18T01:45:52;4.50;99.90
10276;DHT22;5183;51.190;6.820;2023-11-18T01:48:20;4.40;99.90
10276;DHT22;5183;51.190;6.820;2023-11-18T01:50:48;4.50;99.90
10276;DHT22;5183;51.190;6.820;2023-11-18T01:53:16;4.40;99.90
10276;DHT22;5183;51.190;6.820;2023-11-18T01:55:44;4.40;99.90
10276;DHT22;5183;51.190;6.820;2023-11-18T01:58:12;4.50;99.90
10276;DHT22;5183;51.190;6.820;2023-11-18T02:00:45;4.50;99.90
10276;DHT22;5183;51.190;6.820;2023-11-18T02:03:13;4.50;99.90
10276;DHT22;5183;51.190;6.820;2023-11-18T02:05:40;4.50;99.90
10276;DHT22;5183;51.190;6.820;2023-11-18T02:08:08;4.50;99.90
10276;DHT22;5183;51.190;6.820;2023-11-18T02:10:36;4.50;99.90
10276;DHT22;5183;51.190;6.820;2023-11-18T02:13:12;4.50;99.90
10276;DHT22;5183;51.190;6.820;2023-11-18T02:15:41;4.50;99.90
10276;DHT22;5183;51.190;6.820;2023-11-18T02:18:09;4.50;99.90
10276;DHT22;5183;51.190;6.820;2023-11-18T02:20:36;4.60;99.90
10276;DHT22;5183;51.190;6.820;2023-11-18T02:23:04;4.50;99.90
10276;DHT22;5183;51.190;6.820;2023-11-18T02:25:33;4.50;99.90
10276;DHT22;5183;51.190;6.820;2023-11-18T02:28:02;4.50;99.90
10276;DHT22;5183;51.190;6.820;2023-11-18T02:30:29;4.40;99.90
10276;DHT22;5183;51.190;6.820;2023-11-18T02:33:00;4.40;99.90
10276;DHT22;5183;51.190;6.820;2023-11-18T02:35:34;4.40;99.90
10276;DHT22;5183;51.190;6.820;2023-11-18T02:38:03;4.30;99.90
10276;DHT22;5183;51.190;6.820;2023-11-18T02:40:35;4.30;99.90
10276;DHT22;5183;51.190;6.820;2023-11-18T02:43:04;4.30;99.90
10276;DHT22;5183;51.190;6.820;2023-11-18T02:45:32;4.30;99.90
10276;DHT22;5183;51.190;6.820;2023-11-18T02:48:00;4.30;99.90
10276;DHT22;5183;51.190;6.820;2023-11-18T02:50:27;4.30;99.90
10276;DHT22;5183;51.190;6.820;2023-11-18T02:52:55;4.30;99.90
10276;DHT22;5183;51.190;6.820;2023-11-18T02:55:21;4.20;99.90
10276;DHT22;5183;51.190;6.820;2023-11-18T02:57:50;4.20;99.90
10276;DHT22;5183;51.190;6.820;2023-11-18T03:00:19;4.20;99.90
10276;DHT22;5183;51.190;6.820;2023-11-18T03:02:48;4.20;99.90
10276;DHT22;5183;51.190;6.820;2023-11-18T03:05:17;4.20;99.90
10276;DHT22;5183;51.190;6.820;2023-11-18T03:07:44;4.20;99.90
10276;DHT22;5183;51.190;6.820;2023-11-18T03:10:12;4.10;99.90
10276;DHT22;5183;51.190;6.820;2023-11-18T03:12:46;4.20;99.90
10276;DHT22;5183;51.190;6.820;2023-11-18T03:15:13;4.10;99.90
10276;DHT22;5183;51.190;6.820;2023-11-18T03:17:43;4.10;99.90
10276;DHT22;5183;51.190;6.820;2023-11-18T03:20:11;4.20;99.90
10276;DHT22;5183;51.190;6.820;2023-11-18T03:22:41;4.20;99.90
10276;DHT22;5183;51.190;6.820;2023-11-18T03:25:09;4.20;99.90
10276;DHT22;5183;51.190;6.820;2023-11-18T03:27:36;4.20;99.90
10276;DHT22;5183;51.190;6.820;2023-11-18T03:30:03;4.10;99.90
10276;DHT22;5183;51.190;6.820;2023-11-18T03:32:31;4.20;99.90
10276;DHT22;5183;51.190;6.820;2023-11-18T03:35:00;4.10;99.90
10276;DHT22;5183;51.190;6.820;2023-11-18T03:37:26;4.20;99.90
10276;DHT22;5183;51.190;6.820;2023-11-18T03:39:53;4.10;99.90
10276;DHT22;5183;51.190;6.820;2023-11-18T03:42:20;4.10;99.90
10276;DHT22;5183;51.190;6.820;2023-11-18T03:44:47;4.00;99.90
10276;DHT22;5183;51.190;6.820;2023-11-18T03:47:14;4.00;99.90
10276;DHT22;5183;51.190;6.820;2023-11-18T03:49:41;4.00;99.90
10276;DHT22;5183;51.190;6.820;2023-11-18T03:52:09;4.00;99.90
10276;DHT22;5183;51.190;6.820;2023-11-18T03:54:37;3.90;99.90
10276;DHT22;5183;51.190;6.820;2023-11-18T03:57:04;4.00;99.90
10276;DHT22;5183;51.190;6.820;2023-11-18T03:59:31;4.00;99.90
10276;DHT22;5183;51.190;6.820;2023-11-18T04:01:58;4.00;99.90
10276;DHT22;5183;51.190;6.820;2023-11-18T04:04:25;3.90;99.90
10276;DHT22;5183;51.190;6.820;2023-11-18T04:06:51;4.00;99.90
10276;DHT22;5183;51.190;6.820;2023-11-18T04:09:20;3.90;99.90
10276;DHT22;5183;51.190;6.820;2023-11-18T04:11:46;3.90;99.90
10276;DHT22;5183;51.190;6.820;2023-11-18T04:14:13;3.90;99.90
10276;DHT22;5183;51.190;6.820;2023-11-18T04:16:40;3.90;99.90
10276;DHT22;5183;51.190;6.820;2023-11-18T04:19:07;3.90;99.90
10276;DHT22;5183;51.190;6.820;2023-11-18T04:21:34;3.90;99.90
10276;DHT22;5183;51.190;6.820;2023-11-18T04:24:01;3.80;99.90
10276;DHT22;5183;51.190;6.820;2023-11-18T04:26:29;3.80;99.90
10276;DHT22;5183;51.190;6.820;2023-11-18T04:28:55;3.80;99.90
10276;DHT22;5183;51.190;6.820;2023-11-18T04:31:22;3.80;99.90
10276;DHT22;5183;51.190;6.820;2023-11-18T04:33:49;3.80;99.90
10276;DHT22;5183;51.190;6.820;2023-11-18T04:36:16;3.80;99.90
10276;DHT22;5183;51.190;6.820;2023-11-18T04:38:44;3.80;99.90
10276;DHT22;5183;51.190;6.820;2023-11-18T04:41:11;3.80;99.90
10276;DHT22;5183;51.190;6.820;2023-11-18T04:43:39;3.80;99.90
10276;DHT22;5183;51.190;6.820;2023-11-18T04:46:07;3.90;99.90
10276;DHT22;5183;51.190;6.820;2023-11-18T04:48:34;3.90;99.90
10276;DHT22;5183;51.190;6.820;2023-11-18T04:51:01;3.90;99.90
10276;DHT22;5183;51.190;6.820;2023-11-18T04:53:28;3.90;99.90
10276;DHT22;5183;51.190;6.820;2023-11-18T04:55:55;3.90;99.90
10276;DHT22;5183;51.190;6.820;2023-11-18T04:58:21;3.90;99.90
10276;DHT22;5183;51.190;6.820;2023-11-18T05:00:50;3.90;99.90
10276;DHT22;5183;51.190;6.820;2023-11-18T05:03:17;3.90;99.90
10276;DHT22;5183;51.190;6.820;2023-11-18T05:05:43;4.00;99.90
10276;DHT22;5183;51.190;6.820;2023-11-18T05:08:18;4.00;99.90
10276;DHT22;5183;51.190;6.820;2023-11-18T05:10:47;3.90;99.90
10276;DHT22;5183;51.190;6.820;2023-11-18T05:13:14;3.90;99.90
10276;DHT22;5183;51.190;6.820;2023-11-18T05:15:42;3.90;99.90
10276;DHT22;5183;51.190;6.820;2023-11-18T05:18:12;3.90;99.90
10276;DHT22;5183;51.190;6.820;2023-11-18T05:20:40;3.80;99.90
10276;DHT22;5183;51.190;6.820;2023-11-18T05:23:07;3.80;99.90
10276;DHT22;5183;51.190;6.820;2023-11-18T05:25:35;3.90;99.90
10276;DHT22;5183;51.190;6.820;2023-11-18T05:28:02;3.90;99.90
10276;DHT22;5183;51.190;6.820;2023-11-18T05:30:30;3.90;99.90
10276;DHT22;5183;51.190;6.820;2023-11-18T05:32:57;3.90;99.90
10276;DHT22;5183;51.190;6.820;2023-11-18T05:35:25;3.90;99.90
10276;DHT22;5183;51.190;6.820;2023-11-18T05:37:54;4.00;99.90
10276;DHT22;5183;51.190;6.820;2023-11-18T05:40:21;4.00;99.90
10276;DHT22;5183;51.190;6.820;2023-11-18T05:42:48;4.00;99.90
10276;DHT22;5183;51.190;6.820;2023-11-18T05:45:18;4.00;99.90
10276;DHT22;5183;51.190;6.820;2023-11-18T05:47:54;4.10;99.90
10276;DHT22;5183;51.190;6.820;2023-11-18T05:50:21;4.10;99.90
10276;DHT22;5183;51.190;6.820;2023-11-18T05:52:53;4.10;99.90
10276;DHT22;5183;51.190;6.820;2023-11-18T05:55:20;4.20;99.90
10276;DHT22;5183;51.190;6.820;2023-11-18T05:57:47;4.20;99.90
10276;DHT22;5183;51.190;6.820;2023-11-18T06:00:14;4.20;99.90
10276;DHT22;5183;51.190;6.820;2023-11-18T06:02:44;4.30;99.90
10276;DHT22;5183;51.190;6.820;2023-11-18T06:05:12;4.30;99.90
10276;DHT22;5183;51.190;6.820;2023-11-18T06:07:38;4.30;99.90
10276;DHT22;5183;51.190;6.820;2023-11-18T06:10:10;4.30;99.90
10276;DHT22;5183;51.190;6.820;2023-11-18T06:12:37;4.30;99.90
10276;DHT22;5183;51.190;6.820;2023-11-18T06:15:07;4.40;99.90
10276;DHT22;5183;51.190;6.820;2023-11-18T06:17:37;4.40;99.90
10276;DHT22;5183;51.190;6.820;2023-11-18T06:20:05;4.40;99.90
10276;DHT22;5183;51.190;6.820;2023-11-18T06:22:33;4.40;99.90
10276;DHT22;5183;51.190;6.820;2023-11-18T06:25:00;4.40;99.90
10276;DHT22;5183;51.190;6.820;2023-11-18T06:27:29;4.40;99.90
10276;DHT22;5183;51.190;6.820;2023-11-18T06:29:56;4.40;99.90
10276;DHT22;5183;51.190;6.820;2023-11-18T06:32:23;4.40;99.90
10276;DHT22;5183;51.190;6.820;2023-11-18T06:34:51;4.40;99.90
10276;DHT22;5183;51.190;6.820;2023-11-18T06:37:18;4.40;99.90
10276;DHT22;5183;51.190;6.820;2023-11-18T06:39:45;4.40;99.90
10276;DHT22;5183;51.190;6.820;2023-11-18T06:42:14;4.50;99.90
10276;DHT22;5183;51.190;6.820;2023-11-18T06:44:42;4.50;99.90
10276;DHT22;5183;51.190;6.820;2023-11-18T06:47:09;4.50;99.90
10276;DHT22;5183;51.190;6.820;2023-11-18T06:49:38;4.60;99.90
10276;DHT22;5183;51.190;6.820;2023-11-18T06:52:06;4.60;99.90
10276;DHT22;5183;51.190;6.820;2023-11-18T06:54:37;4.60;99.90
10276;DHT22;5183;51.190;6.820;2023-11-18T06:57:04;4.60;99.90
10276;DHT22;5183;51.190;6.820;2023-11-18T06:59:32;4.60;99.90
10276;DHT22;5183;51.190;6.820;2023-11-18T07:02:01;4.60;99.90
10276;DHT22;5183;51.190;6.820;2023-11-18T07:04:31;4.60;99.90
10276;DHT22;5183;51.190;6.820;2023-11-18T07:06:58;4.60;99.90
10276;DHT22;5183;51.190;6.820;2023-11-18T07:09:25;4.60;99.90
10276;DHT22;5183;51.190;6.820;2023-11-18T07:11:51;4.70;99.90
10276;DHT22;5183;51.190;6.820;2023-11-18T07:14:18;4.70;99.90
10276;DHT22;5183;51.190;6.820;2023-11-18T07:16:45;4.70;99.90
10276;DHT22;5183;51.190;6.820;2023-11-18T07:19:14;4.70;99.90
10276;DHT22;5183;51.190;6.820;2023-11-18T07:21:45;4.80;99.90
10276;DHT22;5183;51.190;6.820;2023-11-18T07:24:12;4.80;99.90
10276;DHT22;5183;51.190;6.820;2023-11-18T07:26:39;4.80;99.90
10276;DHT22;5183;51.190;6.820;2023-11-18T07:29:06;4.80;99.90
10276;DHT22;5183;51.190;6.820;2023-11-18T07:31:33;4.90;99.90
10276;DHT22;5183;51.190;6.820;2023-11-18T07:34:02;4.90;99.90
10276;DHT22;5183;51.190;6.820;2023-11-18T07:36:30;4.90;99.90
10276;DHT22;5183;51.190;6.820;2023-11-18T07:38:57;5.00;99.90
10276;DHT22;5183;51.190;6.820;2023-11-18T07:41:26;5.00;99.90
10276;DHT22;5183;51.190;6.820;2023-11-18T07:43:53;5.10;99.90
10276;DHT22;5183;51.190;6.820;2023-11-18T07:46:21;5.10;99.90
10276;DHT22;5183;51.190;6.820;2023-11-18T07:48:48;5.10;99.90
10276;DHT22;5183;51.190;6.820;2023-11-18T07:51:17;5.20;99.90
10276;DHT22;5183;51.190;6.820;2023-11-18T07:53:48;5.30;99.90
10276;DHT22;5183;51.190;6.820;2023-11-18T07:56:15;5.20;99.90
10276;DHT22;5183;51.190;6.820;2023-11-18T07:58:42;5.30;99.90
10276;DHT22;5183;51.190;6.820;2023-11-18T08:01:11;5.40;99.90
10276;DHT22;5183;51.190;6.820;2023-11-18T08:03:38;5.40;99.90
10276;DHT22;5183;51.190;6.820;2023-11-18T08:06:06;5.40;99.90
10276;DHT22;5183;51.190;6.820;2023-11-18T08:08:33;5.40;99.90
10276;DHT22;5183;51.190;6.820;2023-11-18T08:11:03;5.50;99.90
10276;DHT22;5183;51.190;6.820;2023-11-18T08:13:30;5.50;99.90
10276;DHT22;5183;51.190;6.820;2023-11-18T08:15:57;5.50;99.90
10276;DHT22;5183;51.190;6.820;2023-11-18T08:18:24;5.50;99.90
10276;DHT22;5183;51.190;6.820;2023-11-18T08:20:53;5.60;99.90
10276;DHT22;5183;51.190;6.820;2023-11-18T08:23:20;5.60;99.90
10276;DHT22;5183;51.190;6.820;2023-11-18T08:25:47;5.60;99.90
10276;DHT22;5183;51.190;6.820;2023-11-18T08:28:17;5.60;99.90
10276;DHT22;5183;51.190;6.820;2023-11-18T08:30:44;5.70;99.90
10276;DHT22;5183;51.190;6.820;2023-11-18T08:33:14;5.70;99.90
10276;DHT22;5183;51.190;6.820;2023-11-18T08:35:41;5.80;99.90
10276;DHT22;5183;51.190;6.820;2023-11-18T08:38:08;5.80;99.90
10276;DHT22;5183;51.190;6.820;2023-11-18T08:40:37;5.80;99.90
10276;DHT22;5183;51.190;6.820;2023-11-18T08:43:04;5.90;99.90
10276;DHT22;5183;51.190;6.820;2023-11-18T08:45:34;6.00;99.90
10276;DHT22;5183;51.190;6.820;2023-11-18T08:48:04;6.00;99.90
10276;DHT22;5183;51.190;6.820;2023-11-18T08:50:33;6.10;99.90
10276;DHT22;5183;51.190;6.820;2023-11-18T08:53:00;6.10;99.90
10276;DHT22;5183;51.190;6.820;2023-11-18T08:55:30;6.10;99.90
10276;DHT22;5183;51.190;6.820;2023-11-18T08:58:07;6.10;99.90
10276;DHT22;5183;51.190;6.820;2023-11-18T09:00:46;6.20;99.90
10276;DHT22;5183;51.190;6.820;2023-11-18T09:03:16;6.30;99.90
10276;DHT22;5183;51.190;6.820;2023-11-18T09:05:51;6.30;99.90
10276;DHT22;5183;51.190;6.820;2023-11-18T09:08:26;6.40;99.90
10276;DHT22;5183;51.190;6.820;2023-11-18T09:10:55;6.40;99.90
10276;DHT22;5183;51.190;6.820;2023-11-18T09:13:23;6.50;99.90
10276;DHT22;5183;51.190;6.820;2023-11-18T09:15:55;6.50;99.90
10276;DHT22;5183;51.190;6.820;2023-11-18T09:18:23;6.50;99.90
10276;DHT22;5183;51.190;6.820;2023-11-18T09:20:50;6.50;99.90
10276;DHT22;5183;51.190;6.820;2023-11-18T09:23:18;6.60;99.90
10276;DHT22;5183;51.190;6.820;2023-11-18T09:25:46;6.50;99.90
10276;DHT22;5183;51.190;6.820;2023-11-18T09:28:14;6.50;99.90
10276;DHT22;5183;51.190;6.820;2023-11-18T09:30:42;6.50;99.90
10276;DHT22;5183;51.190;6.820;2023-11-18T09:33:18;6.50;99.90
10276;DHT22;5183;51.190;6.820;2023-11-18T09:35:52;6.50;99.90
10276;DHT22;5183;51.190;6.820;2023-11-18T09:38:22;6.60;99.90
10276;DHT22;5183;51.190;6.820;2023-11-18T09:40:51;6.60;99.90
10276;DHT22;5183;51.190;6.820;2023-11-18T09:43:19;6.70;99.90
10276;DHT22;5183;51.190;6.820;2023-11-18T09:45:49;6.80;99.90
10276;DHT22;5183;51.190;6.820;2023-11-18T09:48:19;6.80;99.90
10276;DHT22;5183;51.190;6.820;2023-11-18T09:50:52;6.90;99.90
10276;DHT22;5183;51.190;6.820;2023-11-18T09:53:19;6.90;99.90
10276;DHT22;5183;51.190;6.820;2023-11-18T09:55:53;7.00;99.90
10276;DHT22;5183;51.190;6.820;2023-11-18T09:58:26;7.00;99.90
10276;DHT22;5183;51.190;6.820;2023-11-18T10:00:58;7.00;99.90
10276;DHT22;5183;51.190;6.820;2023-11-18T10:03:29;7.00;99.90
10276;DHT22;5183;51.190;6.820;2023-11-18T10:05:57;7.00;99.90
10276;DHT22;5183;51.190;6.820;2023-11-18T10:08:30;7.10;99.90
10276;DHT22;5183;51.190;6.820;2023-11-18T10:10:57;7.20;99.90
10276;DHT22;5183;51.190;6.820;2023-11-18T10:13:31;7.20;99.90
10276;DHT22;5183;51.190;6.820;2023-11-18T10:16:01;7.30;99.90
10276;DHT22;5183;51.190;6.820;2023-11-18T10:18:32;7.30;99.90
10276;DHT22;5183;51.190;6.820;2023-11-18T10:21:02;7.30;99.90
10276;DHT22;5183;51.190;6.820;2023-11-18T10:23:34;7.30;99.90
10276;DHT22;5183;51.190;6.820;2023-11-18T10:26:03;7.30;99.90
10276;DHT22;5183;51.190;6.820;2023-11-18T10:28:34;7.40;99.90
10276;DHT22;5183;51.190;6.820;2023-11-18T10:31:04;7.40;99.90
10276;DHT22;5183;51.190;6.820;2023-11-18T10:33:35;7.40;99.90
10276;DHT22;5183;51.190;6.820;2023-11-18T10:36:03;7.40;99.90
10276;DHT22;5183;51.190;6.820;2023-11-18T10:38:31;7.50;99.90
10276;DHT22;5183;51.190;6.820;2023-11-18T10:40:59;7.50;99.90
10276;DHT22;5183;51.190;6.820;2023-11-18T10:43:27;7.40;99.90
10276;DHT22;5183;51.190;6.820;2023-11-18T10:46:04;7.50;99.90
10276;DHT22;5183;51.190;6.820;2023-11-18T10:48:42;7.50;99.90
10276;DHT22;5183;51.190;6.820;2023-11-18T10:51:10;7.50;99.90
10276;DHT22;5183;51.190;6.820;2023-11-18T10:53:38;7.60;99.90
10276;DHT22;5183;51.190;6.820;2023-11-18T10:56:16;7.60;99.90
10276;DHT22;5183;51.190;6.820;2023-11-18T10:58:45;7.60;99.90
10276;DHT22;5183;51.190;6.820;2023-11-18T11:01:12;7.50;99.90
10276;DHT22;5183;51.190;6.820;2023-11-18T11:03:53;7.50;99.90
10276;DHT22;5183;51.190;6.820;2023-11-18T11:06:22;7.50;99.90
10276;DHT22;5183;51.190;6.820;2023-11-18T11:08:50;7.50;99.90
10276;DHT22;5183;51.190;6.820;2023-11-18T11:11:20;7.60;99.90
10276;DHT22;5183;51.190;6.820;2023-11-18T11:13:49;7.60;99.90
10276;DHT22;5183;51.190;6.820;2023-11-18T11:16:19;7.60;99.90
10276;DHT22;5183;51.190;6.820;2023-11-18T11:18:48;7.70;99.90
10276;DHT22;5183;51.190;6.820;2023-11-18T11:21:25;7.70;99.90
10276;DHT22;5183;51.190;6.820;2023-11-18T11:23:55;7.70;99.90
10276;DHT22;5183;51.190;6.820;2023-11-18T11:26:39;7.70;99.90
10276;DHT22;5183;51.190;6.820;2023-11-18T11:29:18;7.60;99.90
10276;DHT22;5183;51.190;6.820;2023-11-18T11:32:00;7.60;99.90
10276;DHT22;5183;51.190;6.820;2023-11-18T11:34:30;7.50;99.90
10276;DHT22;5183;51.190;6.820;2023-11-18T11:36:59;7.60;99.90
10276;DHT22;5183;51.190;6.820;2023-11-18T11:39:27;7.50;99.90
10276;DHT22;5183;51.190;6.820;2023-11-18T11:41:56;7.60;99.90
10276;DHT22;5183;51.190;6.820;2023-11-18T11:44:25;7.50;99.90
10276;DHT22;5183;51.190;6.820;2023-11-18T11:46:55;7.60;99.90
10276;DHT22;5183;51.190;6.820;2023-11-18T11:49:26;7.60;99.90
10276;DHT22;5183;51.190;6.820;2023-11-18T11:52:00;7.60;99.90
10276;DHT22;5183;51.190;6.820;2023-11-18T11:54:34;7.60;99.90
10276;DHT22;5183;51.190;6.820;2023-11-18T11:57:04;7.70;99.90
10276;DHT22;5183;51.190;6.820;2023-11-18T11:59:55;7.70;99.90
10276;DHT22;5183;51.190;6.820;2023-11-18T12:02:24;7.70;99.90
10276;DHT22;5183;51.190;6.820;2023-11-18T12:04:55;7.70;99.90
10276;DHT22;5183;51.190;6.820;2023-11-18T12:07:26;7.80;99.90
10276;DHT22;5183;51.190;6.820;2023-11-18T12:09:56;7.70;99.90
10276;DHT22;5183;51.190;6.820;2023-11-18T12:12:24;7.70;99.90
10276;DHT22;5183;51.190;6.820;2023-11-18T12:14:53;7.70;99.90
10276;DHT22;5183;51.190;6.820;2023-11-18T12:17:22;7.70;99.90
10276;DHT22;5183;51.190;6.820;2023-11-18T12:19:49;7.70;99.90
10276;DHT22;5183;51.190;6.820;2023-11-18T12:22:25;7.70;99.90
10276;DHT22;5183;51.190;6.820;2023-11-18T12:28:13;7.60;99.90
10276;DHT22;5183;51.190;6.820;2023-11-18T12:30:42;7.60;99.90
10276;DHT22;5183;51.190;6.820;2023-11-18T12:39:41;7.60;99.90
10276;DHT22;5183;51.190;6.820;2023-11-18T12:42:09;7.60;99.90
10276;DHT22;5183;51.190;6.820;2023-11-18T12:45:00;7.60;99.90
10276;DHT22;5183;51.190;6.820;2023-11-18T12:47:38;7.60;99.90
10276;DHT22;5183;51.190;6.820;2023-11-18T12:50:09;7.60;99.90
10276;DHT22;5183;51.190;6.820;2023-11-18T12:52:43;7.60;99.90
10276;DHT22;5183;51.190;6.820;2023-11-18T12:55:13;7.60;99.90
10276;DHT22;5183;51.190;6.820;2023-11-18T12:57:46;7.60;99.90
10276;DHT22;5183;51.190;6.820;2023-11-18T13:00:14;7.60;99.90
10276;DHT22;5183;51.190;6.820;2023-11-18T13:02:52;7.60;99.90
10276;DHT22;5183;51.190;6.820;2023-11-18T13:05:19;7.60;99.90
10276;DHT22;5183;51.190;6.820;2023-11-18T13:07:46;7.60;99.90
10276;DHT22;5183;51.190;6.820;2023-11-18T13:10:16;7.60;99.90
10276;DHT22;5183;51.190;6.820;2023-11-18T13:12:44;7.60;99.90
10276;DHT22;5183;51.190;6.820;2023-11-18T13:15:12;7.60;99.90
10276;DHT22;5183;51.190;6.820;2023-11-18T13:17:56;7.60;99.90
10276;DHT22;5183;51.190;6.820;2023-11-18T13:20:24;7.60;99.90
10276;DHT22;5183;51.190;6.820;2023-11-18T13:22:51;7.60;99.90
10276;DHT22;5183;51.190;6.820;2023-11-18T13:25:22;7.50;99.90
10276;DHT22;5183;51.190;6.820;2023-11-18T13:27:49;7.50;99.90
10276;DHT22;5183;51.190;6.820;2023-11-18T13:30:18;7.50;99.90
10276;DHT22;5183;51.190;6.820;2023-11-18T13:32:46;7.60;99.90
10276;DHT22;5183;51.190;6.820;2023-11-18T13:35:15;7.70;99.90
10276;DHT22;5183;51.190;6.820;2023-11-18T13:37:46;7.70;99.90
10276;DHT22;5183;51.190;6.820;2023-11-18T13:40:14;7.70;99.90
10276;DHT22;5183;51.190;6.820;2023-11-18T13:42:45;7.70;99.90
10276;DHT22;5183;51.190;6.820;2023-11-18T13:45:13;7.60;99.90
10276;DHT22;5183;51.190;6.820;2023-11-18T13:47:49;7.70;99.90
10276;DHT22;5183;51.190;6.820;2023-11-18T13:50:16;7.60;99.90
10276;DHT22;5183;51.190;6.820;2023-11-18T13:52:45;7.70;99.90
10276;DHT22;5183;51.190;6.820;2023-11-18T13:55:15;7.70;99.90
10276;DHT22;5183;51.190;6.820;2023-11-18T13:57:53;7.70;99.90
10276;DHT22;5183;51.190;6.820;2023-11-18T14:00:22;7.70;99.90
10276;DHT22;5183;51.190;6.820;2023-11-18T14:02:53;7.70;99.90
10276;DHT22;5183;51.190;6.820;2023-11-18T14:05:22;7.70;99.90
10276;DHT22;5183;51.190;6.820;2023-11-18T14:07:51;7.60;99.90
10276;DHT22;5183;51.190;6.820;2023-11-18T14:10:18;7.70;99.90
10276;DHT22;5183;51.190;6.820;2023-11-18T14:13:02;7.60;99.90
10276;DHT22;5183;51.190;6.820;2023-11-18T14:15:31;7.60;99.90
10276;DHT22;5183;51.190;6.820;2023-11-18T14:18:01;7.70;99.90
10276;DHT22;5183;51.190;6.820;2023-11-18T14:20:27;7.70;99.90
10276;DHT22;5183;51.190;6.820;2023-11-18T14:22:56;7.70;99.90
10276;DHT22;5183;51.190;6.820;2023-11-18T14:25:23;7.60;99.90
10276;DHT22;5183;51.190;6.820;2023-11-18T14:27:50;7.60;99.90
10276;DHT22;5183;51.190;6.820;2023-11-18T14:30:20;7.60;99.90
10276;DHT22;5183;51.190;6.820;2023-11-18T14:32:50;7.60;99.90
10276;DHT22;5183;51.190;6.820;2023-11-18T14:35:16;7.60;99.90
10276;DHT22;5183;51.190;6.820;2023-11-18T14:37:43;7.60;99.90
10276;DHT22;5183;51.190;6.820;2023-11-18T14:40:11;7.60;99.90
10276;DHT22;5183;51.190;6.820;2023-11-18T14:42:41;7.60;99.90
10276;DHT22;5183;51.190;6.820;2023-11-18T14:45:10;7.50;99.90
10276;DHT22;5183;51.190;6.820;2023-11-18T14:47:39;7.50;99.90
10276;DHT22;5183;51.190;6.820;2023-11-18T14:50:07;7.50;99.90
10276;DHT22;5183;51.190;6.820;2023-11-18T14:52:42;7.50;99.90
10276;DHT22;5183;51.190;6.820;2023-11-18T14:55:09;7.50;99.90
10276;DHT22;5183;51.190;6.820;2023-11-18T14:57:38;7.50;99.90
10276;DHT22;5183;51.190;6.820;2023-11-18T15:00:06;7.50;99.90
10276;DHT22;5183;51.190;6.820;2023-11-18T15:02:46;7.50;99.90
10276;DHT22;5183;51.190;6.820;2023-11-18T15:05:14;7.50;99.90
10276;DHT22;5183;51.190;6.820;2023-11-18T15:07:45;7.40;99.90
10276;DHT22;5183;51.190;6.820;2023-11-18T15:10:14;7.40;99.90
10276;DHT22;5183;51.190;6.820;2023-11-18T15:12:45;7.40;99.90
10276;DHT22;5183;51.190;6.820;2023-11-18T15:15:13;7.40;99.90
10276;DHT22;5183;51.190;6.820;2023-11-18T15:17:46;7.40;99.90
10276;DHT22;5183;51.190;6.820;2023-11-18T15:20:14;7.40;99.90
10276;DHT22;5183;51.190;6.820;2023-11-18T15:22:42;7.30;99.90
10276;DHT22;5183;51.190;6.820;2023-11-18T15:25:12;7.40;99.90
10276;DHT22;5183;51.190;6.820;2023-11-18T15:27:40;7.40;99.90
10276;DHT22;5183;51.190;6.820;2023-11-18T15:30:09;7.30;99.90
10276;DHT22;5183;51.190;6.820;2023-11-18T15:32:40;7.30;99.90
10276;DHT22;5183;51.190;6.820;2023-11-18T15:35:09;7.30;99.90
10276;DHT22;5183;51.190;6.820;2023-11-18T15:37:36;7.30;99.90
10276;DHT22;5183;51.190;6.820;2023-11-18T15:40:05;7.30;99.90
10276;DHT22;5183;51.190;6.820;2023-11-18T15:42:45;7.30;99.90
10276;DHT22;5183;51.190;6.820;2023-11-18T15:45:16;7.30;99.90
10276;DHT22;5183;51.190;6.820;2023-11-18T15:47:43;7.30;99.90
10276;DHT22;5183;51.190;6.820;2023-11-18T15:50:14;7.30;99.90
10276;DHT22;5183;51.190;6.820;2023-11-18T15:52:42;7.30;99.90
10276;DHT22;5183;51.190;6.820;2023-11-18T15:55:09;7.30;99.90
10276;DHT22;5183;51.190;6.820;2023-11-18T15:57:40;7.30;99.90
10276;DHT22;5183;51.190;6.820;2023-11-18T16:00:12;7.30;99.90
10276;DHT22;5183;51.190;6.820;2023-11-18T16:02:42;7.30;99.90
10276;DHT22;5183;51.190;6.820;2023-11-18T16:05:13;7.30;99.90
10276;DHT22;5183;51.190;6.820;2023-11-18T16:07:43;7.30;99.90
10276;DHT22;5183;51.190;6.820;2023-11-18T16:10:11;7.30;99.90
10276;DHT22;5183;51.190;6.820;2023-11-18T16:12:43;7.30;99.90
10276;DHT22;5183;51.190;6.820;2023-11-18T16:15:11;7.30;99.90
10276;DHT22;5183;51.190;6.820;2023-11-18T16:17:39;7.40;99.90
10276;DHT22;5183;51.190;6.820;2023-11-18T16:20:07;7.40;99.90
10276;DHT22;5183;51.190;6.820;2023-11-18T16:22:36;7.40;99.90
10276;DHT22;5183;51.190;6.820;2023-11-18T16:25:04;7.40;99.90